Commit Graph
220 Commits
Author SHA1 Message Date
Jonathon Leight 45677f0655 Add option to delete your account 2026-07-31 20:53:28 -04:00
Jonathon Leight fb7b45dbdf Transfer repeater ownership 2026-07-30 22:17:52 -04:00
Jonathon Leight 799b9d1d0c Tests for account recovery 2026-07-30 21:36:05 -04:00
Jonathon Leight 259c660927 Fix CSP 2026-07-30 21:24:00 -04:00
Jonathon Leight 2368d03521 Password reset emails 2026-07-30 20:55:52 -04:00
Jonathon Leight 933bc7826b Add optional account email address 2026-07-30 20:41:22 -04:00
Jonathon Leight fa81d45a50 Add email sending via Resend 2026-07-30 20:15:51 -04:00
Jonathon Leight 0b209b57b5 Log CSP reports 2026-07-30 19:13:49 -04:00
Jonathon Leight ae2ebdbd0e Fix color contrast 2026-07-30 17:59:44 -04:00
Jonathon Leight 7dcf1b559d Handle concurrent migrations 2026-07-30 12:20:44 -04:00
Jonathon Leight d59a6ed2bd Add server identity backup and restore 2026-07-30 12:07:26 -04:00
Jonathon Leight ba2eb4cb71 Show org count 2026-07-30 10:57:24 -04:00
Jonathon Leight 4389073d05 Move search filters up the DOM 2026-07-30 10:49:28 -04:00
Jonathon Leight be874722af Set timeouts/limits on all request stages 2026-07-30 10:33:42 -04:00
Jonathon Leight c13cb9bf87 Use buttons for menu and toggle controls 2026-07-30 10:21:12 -04:00
Jonathon Leight 8bb1772fc6 Ensure accessible form controls 2026-07-30 09:53:51 -04:00
Jonathon Leight 578abce88f Emphasize passkeys based on browser capability 2026-07-30 09:39:34 -04:00
Jonathon Leight 47dd93430b Nudge password accounts toward passkeys 2026-07-30 09:23:33 -04:00
Jonathon Leight 23405c6d14 Raise password floor to 12 characters 2026-07-30 09:06:29 -04:00
Jonathon Leight 4232ff7385 Remove modulo bias from public ID generation 2026-07-30 08:56:17 -04:00
Jonathon Leight 557d2e55b5 Fix page headings 2026-07-30 08:46:19 -04:00
Jonathon Leight f49b16e354 Expire share links after 7 days, cleanup after 30 2026-07-29 21:00:14 -04:00
Jonathon Leight 3881c27c2d Prune expired auth codes 2026-07-29 20:27:18 -04:00
Jonathon Leight c6e8303ef5 Make account login attempts constant time 2026-07-29 20:14:08 -04:00
Jonathon Leight 080132ea36 Block cross-site writes via Sec-Fetch-Site 2026-07-29 20:02:13 -04:00
Jonathon Leight 2ad7a59af6 Compress HTML responses 2026-07-29 19:43:43 -04:00
Jonathon Leight 2f6fa0e365 Set up cache headers 2026-07-29 19:34:27 -04:00
Jonathon Leight 58dc93e90b Upgrade dependencies 2026-07-11 22:23:22 -04:00
Jonathon Leight 3d9e0ff9a4 Pre-compress static assets 2026-07-11 22:12:05 -04:00
Jonathon Leight 19bf9372c2 Static asset template helper 2026-07-11 22:07:42 -04:00
Jonathon Leight 8b17900165 Content-hashed static assets and immutable cache 2026-07-11 22:04:37 -04:00
Jonathon Leight d821309fd8 Add public repeater checkbox when adding repeater 2026-07-08 18:27:28 -04:00
Jonathon Leight 83f41fc530 Shared with orgs link to orgs 2026-07-08 18:10:36 -04:00
Jonathon Leight dfc92f5528 Show fetch location alert immediately 2026-07-08 18:01:03 -04:00
Jonathon Leight 51950de1e2 Get lat/lon warning 2026-07-08 08:21:35 -04:00
Jonathon Leight 219c803de8 Remove standalone confirm page 2026-07-08 08:06:53 -04:00
Jonathon Leight 98e1ce104e Merge confirm into console 2026-07-08 07:52:08 -04:00
Jonathon Leight b57e297fd7 Store locations from explicit get lat/lon 2026-07-08 07:46:39 -04:00
Jonathon Leight b5e911203c Longer drain period 2026-07-08 07:30:18 -04:00
Jonathon Leight 29a9248a40 Better marketing cards 2026-07-08 00:27:51 -04:00
Jonathon Leight 8bb90e5282 Link to user from audit logs 2026-07-08 00:20:06 -04:00
Jonathon Leight ca656d6bff Show display name in audit log 2026-07-08 00:15:58 -04:00
Jonathon Leight 7baa7ac4db Fix audit log sorting 2026-07-08 00:11:25 -04:00
Jonathon Leight 8f185a1cc0 Fix button alignment 2026-07-08 00:07:20 -04:00
Jonathon Leight 8af752a136 Edit org modals 2026-07-08 00:01:06 -04:00
Jonathon Leight 16f1feb360 Link to actual public org view 2026-07-07 23:33:06 -04:00
Jonathon Leight 2cd07b39ca Make org actions consistent 2026-07-07 23:28:09 -04:00
Jonathon Leight ccf0f94dce Clean up share links when accepted 2026-07-07 22:48:52 -04:00
Jonathon Leight 5b71c42277 Fix broken test 2026-07-07 22:28:28 -04:00
Jonathon Leight 0ee6dcf803 Consolidate share access management 2026-07-07 22:28:20 -04:00